Time;durP1;ratioP1;P1;durP2;ratioP2;P2;SDS_P1;SDS_P2;PMS_P1;PMS_P2;Temp;Humidity;BMP_temperature;BMP_pressure;BME280_temperature;BME280_humidity;BME280_pressure;Samples;Min_cycle;Max_cycle;Signal;HPM_P1;HPM_P2
2023/09/26 00:00:10;;;;;;;8.33;7.20;;;;;;;11.22;100.00;98755.09;5075136;28;20684;-79
2023/09/26 00:02:37;;;;;;;9.10;6.60;;;;;;;11.21;100.00;98754.28;5074670;28;20241;-78
2023/09/26 00:05:07;;;;;;;9.80;7.57;;;;;;;11.16;100.00;98756.34;5074283;28;20214;-79
2023/09/26 00:07:36;;;;;;;9.03;7.27;;;;;;;11.13;100.00;98753.03;5075171;28;20207;-79
2023/09/26 00:10:03;;;;;;;8.87;6.90;;;;;;;11.18;100.00;98753.63;5074814;28;20294;-78
2023/09/26 00:12:30;;;;;;;7.63;6.83;;;;;;;11.14;100.00;98746.81;5074879;28;20247;-78
2023/09/26 00:14:57;;;;;;;8.83;7.27;;;;;;;11.19;100.00;98750.84;5076529;28;20303;-78
2023/09/26 00:17:23;;;;;;;8.00;6.70;;;;;;;11.14;100.00;98746.81;5076635;28;20209;-78
2023/09/26 00:19:50;;;;;;;7.93;6.80;;;;;;;11.08;100.00;98745.38;5075864;28;20282;-79
2023/09/26 00:22:16;;;;;;;9.53;7.13;;;;;;;11.16;100.00;98750.19;5075045;28;20314;-79
2023/09/26 00:24:45;;;;;;;8.57;6.87;;;;;;;11.12;100.00;98743.41;5075096;28;20204;-79
2023/09/26 00:27:11;;;;;;;9.73;6.90;;;;;;;11.07;100.00;98748.13;5074903;28;20307;-78
2023/09/26 00:29:37;;;;;;;7.53;6.53;;;;;;;11.03;100.00;98750.13;5075367;28;20294;-79
2023/09/26 00:32:04;;;;;;;10.10;7.20;;;;;;;10.99;100.00;98747.72;5074504;28;20611;-79
2023/09/26 00:34:31;;;;;;;7.73;6.47;;;;;;;10.98;100.00;98746.03;5074938;28;20209;-79
2023/09/26 00:36:57;;;;;;;9.80;7.33;;;;;;;10.96;100.00;98750.56;5074508;28;20211;-79
2023/09/26 00:39:24;;;;;;;8.83;7.00;;;;;;;10.95;100.00;98754.16;5074684;28;20239;-79
2023/09/26 00:41:51;;;;;;;9.70;7.40;;;;;;;11.03;100.00;98759.84;5074064;28;20730;-79
2023/09/26 00:44:18;;;;;;;8.33;7.00;;;;;;;11.10;100.00;98745.28;5074602;28;20211;-79
2023/09/26 00:46:48;;;;;;;9.30;6.97;;;;;;;11.07;100.00;98745.47;5074316;28;20677;-79
2023/09/26 00:49:15;;;;;;;7.87;6.80;;;;;;;11.05;100.00;98745.56;5074183;28;20204;-78
2023/09/26 00:51:42;;;;;;;8.23;6.63;;;;;;;11.00;100.00;98744.16;5074097;28;20229;-78
2023/09/26 00:54:14;;;;;;;7.93;6.63;;;;;;;10.93;100.00;98742.81;5075985;28;20209;-79
2023/09/26 00:56:42;;;;;;;9.23;7.07;;;;;;;10.94;100.00;98733.97;5074373;28;20211;-78
2023/09/26 00:59:10;;;;;;;6.97;6.07;;;;;;;10.87;100.00;98741.41;5074574;28;20254;-78
2023/09/26 01:01:38;;;;;;;9.80;6.90;;;;;;;10.85;100.00;98737.16;5072916;28;20238;-78
2023/09/26 01:04:06;;;;;;;10.47;7.23;;;;;;;10.81;100.00;98740.91;5074516;28;20207;-78
2023/09/26 01:06:33;;;;;;;7.90;5.93;;;;;;;10.73;100.00;98735.25;5074002;28;20207;-78
2023/09/26 01:09:00;;;;;;;8.10;6.77;;;;;;;10.71;100.00;98743.25;5073776;28;20278;-78
2023/09/26 01:11:27;;;;;;;7.60;6.50;;;;;;;10.69;100.00;98744.28;5073730;28;20229;-78
2023/09/26 01:13:53;;;;;;;8.27;6.77;;;;;;;10.66;100.00;98745.34;5074088;28;20203;-78
2023/09/26 01:16:21;;;;;;;9.77;6.57;;;;;;;10.68;100.00;98747.88;5073772;28;20212;-78
2023/09/26 01:18:48;;;;;;;8.37;6.63;;;;;;;10.64;100.00;98741.09;5073788;28;20251;-78
2023/09/26 01:21:15;;;;;;;8.77;6.53;;;;;;;10.59;100.00;98748.44;5072832;28;20298;-78
2023/09/26 01:23:42;;;;;;;10.80;7.50;;;;;;;10.58;100.00;98747.56;5074117;28;20681;-79
2023/09/26 01:26:10;;;;;;;8.97;7.00;;;;;;;10.58;100.00;98741.47;5073453;28;20217;-78
2023/09/26 01:28:37;;;;;;;10.00;7.33;;;;;;;10.60;100.00;98739.56;5073708;28;20290;-79
2023/09/26 01:31:03;;;;;;;9.27;7.17;;;;;;;10.57;100.00;98739.72;5073242;28;20227;-78
2023/09/26 01:33:30;;;;;;;10.97;8.90;;;;;;;10.58;100.00;98736.19;5073897;28;20209;-78
2023/09/26 01:35:56;;;;;;;10.63;8.67;;;;;;;10.58;100.00;98731.72;5073295;28;20209;-78
2023/09/26 01:38:24;;;;;;;11.47;8.80;;;;;;;10.56;100.00;98741.53;5073242;28;20230;-78
2023/09/26 01:40:50;;;;;;;11.43;8.37;;;;;;;10.52;100.00;98731.25;5073076;28;20867;-78
2023/09/26 01:43:18;;;;;;;11.07;8.50;;;;;;;10.54;100.00;98735.50;5073283;28;20211;-79
2023/09/26 01:45:44;;;;;;;10.73;8.67;;;;;;;10.53;100.00;98732.94;5073604;28;20218;-78
2023/09/26 01:48:12;;;;;;;13.70;9.20;;;;;;;10.51;100.00;98732.19;5073482;28;20216;-78
2023/09/26 01:50:40;;;;;;;11.93;8.73;;;;;;;10.48;100.00;98727.94;5073114;28;20302;-78
2023/09/26 01:53:08;;;;;;;11.13;8.73;;;;;;;10.44;100.00;98734.34;5073259;28;20211;-79
2023/09/26 01:55:35;;;;;;;11.53;8.13;;;;;;;10.41;100.00;98728.38;5073635;28;20203;-78
2023/09/26 01:58:01;;;;;;;9.83;8.23;;;;;;;10.41;100.00;98725.75;5073167;28;20235;-78
2023/09/26 02:00:30;;;;;;;10.07;8.20;;;;;;;10.42;100.00;98719.50;5073205;28;20208;-78
2023/09/26 02:02:57;;;;;;;9.93;7.70;;;;;;;10.40;100.00;98724.06;5072770;28;20206;-78
2023/09/26 02:05:24;;;;;;;11.53;9.13;;;;;;;10.35;100.00;98723.47;5073314;28;20261;-78
2023/09/26 02:07:50;;;;;;;11.57;8.40;;;;;;;10.33;100.00;98731.47;5073925;28;20558;-79
2023/09/26 02:10:18;;;;;;;9.93;8.37;;;;;;;10.34;100.00;98721.78;5072960;28;20218;-78
2023/09/26 02:12:46;;;;;;;11.83;8.20;;;;;;;10.34;100.00;98722.59;5072825;28;20224;-79
2023/09/26 02:15:13;;;;;;;10.37;8.23;;;;;;;10.33;100.00;98730.66;5073022;28;20302;-78
2023/09/26 02:17:42;;;;;;;10.50;8.10;;;;;;;10.29;100.00;98724.66;5072628;28;20218;-80
2023/09/26 02:20:12;;;;;;;10.10;7.63;;;;;;;10.22;100.00;98728.59;5075270;28;20231;-80
2023/09/26 02:22:40;;;;;;;9.60;7.60;;;;;;;10.15;100.00;98721.16;5079540;28;20234;-80
2023/09/26 02:25:07;;;;;;;12.33;8.17;;;;;;;10.09;100.00;98716.22;5080670;28;20238;-80
2023/09/26 02:27:33;;;;;;;10.97;8.13;;;;;;;10.08;100.00;98725.06;5074922;28;20211;-80
2023/09/26 02:30:00;;;;;;;12.20;8.57;;;;;;;10.07;100.00;98723.34;5073823;28;20203;-80
2023/09/26 02:32:26;;;;;;;10.27;8.10;;;;;;;10.07;100.00;98718.06;5073581;28;20230;-80
2023/09/26 02:34:54;;;;;;;10.03;8.20;;;;;;;10.07;100.00;98723.34;5072991;28;20199;-80
2023/09/26 02:37:21;;;;;;;10.90;8.53;;;;;;;10.06;100.00;98721.66;5072879;28;20207;-78
2023/09/26 02:39:47;;;;;;;10.20;8.27;;;;;;;10.09;100.00;98718.88;5073066;28;20245;-78
2023/09/26 02:42:14;;;;;;;10.07;7.27;;;;;;;10.07;100.00;98708.38;5073048;28;20293;-80
2023/09/26 02:44:41;;;;;;;8.83;7.57;;;;;;;9.98;100.00;98708.03;5072857;28;20215;-78
2023/09/26 02:47:07;;;;;;;10.30;7.60;;;;;;;9.91;100.00;98707.50;5073394;28;20506;-79
2023/09/26 02:49:34;;;;;;;7.40;6.60;;;;;;;9.82;100.00;98713.34;5072694;28;20212;-79
2023/09/26 02:52:02;;;;;;;10.20;7.87;;;;;;;9.79;100.00;98708.22;5072414;28;20244;-78
2023/09/26 02:54:29;;;;;;;11.13;7.40;;;;;;;9.74;100.00;98699.69;5072437;28;20218;-78
2023/09/26 02:56:57;;;;;;;9.03;6.93;;;;;;;9.76;100.00;98707.53;5072771;28;20218;-78
2023/09/26 02:59:23;;;;;;;9.93;7.67;;;;;;;9.74;100.00;98710.25;5071828;28;20705;-78
2023/09/26 03:01:50;;;;;;;9.33;7.23;;;;;;;9.72;100.00;98708.69;5072421;28;20237;-78
2023/09/26 03:04:17;;;;;;;8.50;6.90;;;;;;;9.68;100.00;98707.13;5072616;28;20241;-78
2023/09/26 03:06:43;;;;;;;10.40;7.47;;;;;;;9.68;100.00;98701.84;5072270;28;20211;-78
2023/09/26 03:09:11;;;;;;;8.83;7.23;;;;;;;9.65;100.00;98700.25;5071949;28;20213;-78
2023/09/26 03:11:38;;;;;;;12.93;7.87;;;;;;;9.62;100.00;98702.19;5071868;28;20241;-79
2023/09/26 03:14:04;;;;;;;11.93;7.87;;;;;;;9.61;100.00;98708.41;5072441;28;20226;-79
2023/09/26 03:16:31;;;;;;;11.13;7.97;;;;;;;9.62;100.00;98707.47;5072531;28;20214;-79
2023/09/26 03:18:57;;;;;;;10.57;7.90;;;;;;;9.65;100.00;98704.66;5072120;28;20228;-78
2023/09/26 03:21:25;;;;;;;11.10;7.73;;;;;;;9.63;100.00;98706.53;5071665;28;20728;-78
2023/09/26 03:23:51;;;;;;;10.37;7.40;;;;;;;9.59;100.00;98707.63;5073672;28;20212;-78
2023/09/26 03:26:19;;;;;;;10.03;7.47;;;;;;;9.59;100.00;98710.28;5075780;28;20210;-78
2023/09/26 03:28:46;;;;;;;10.33;7.37;;;;;;;9.56;100.00;98705.19;5075868;28;20208;-78
2023/09/26 03:31:12;;;;;;;8.93;7.03;;;;;;;9.54;100.00;98701.78;5075646;28;20332;-78
2023/09/26 03:33:39;;;;;;;10.53;7.80;;;;;;;9.52;100.00;98706.28;5075747;28;20217;-78
2023/09/26 03:36:06;;;;;;;11.20;8.53;;;;;;;9.53;100.00;98705.34;5075656;28;20292;-79
2023/09/26 03:38:32;;;;;;;10.87;7.70;;;;;;;9.54;100.00;98701.78;5075737;28;20210;-78
2023/09/26 03:41:00;;;;;;;8.60;7.20;;;;;;;9.52;100.00;98708.91;5075311;28;20227;-78
2023/09/26 03:43:29;;;;;;;9.77;7.37;;;;;;;9.48;100.00;98707.41;5075553;28;20212;-78
2023/09/26 03:46:01;;;;;;;8.53;7.00;;;;;;;9.45;100.00;98703.16;5076286;28;20216;-78
2023/09/26 03:48:27;;;;;;;8.07;6.83;;;;;;;9.40;100.00;98709.59;5076052;28;20682;-78
2023/09/26 03:50:54;;;;;;;9.17;6.60;;;;;;;9.33;100.00;98709.09;5075146;28;20324;-78
2023/09/26 03:53:26;;;;;;;9.10;6.53;;;;;;;9.27;100.00;98709.44;5074995;28;20215;-78
2023/09/26 03:55:56;;;;;;;9.80;7.37;;;;;;;9.28;100.00;98712.91;5074998;28;20207;-79
2023/09/26 03:58:23;;;;;;;11.00;8.03;;;;;;;9.26;100.00;98701.59;5074751;28;20207;-78
2023/09/26 04:00:51;;;;;;;10.97;8.20;;;;;;;9.31;100.00;98699.56;5074448;28;20235;-78
2023/09/26 04:03:17;;;;;;;10.27;8.23;;;;;;;9.35;100.00;98707.22;5074911;28;20260;-78
2023/09/26 04:05:46;;;;;;;12.77;9.00;;;;;;;9.40;100.00;98699.91;5074380;28;20208;-78
2023/09/26 04:08:14;;;;;;;13.27;8.80;;;;;;;9.44;100.00;98696.19;5074604;28;20222;-78
2023/09/26 04:10:40;;;;;;;15.40;10.33;;;;;;;9.49;100.00;98694.09;5074078;28;20199;-78
2023/09/26 04:13:07;;;;;;;16.80;9.73;;;;;;;9.51;100.00;98699.31;5074186;28;20215;-78
2023/09/26 04:15:37;;;;;;;14.60;9.57;;;;;;;9.53;100.00;98694.78;5074490;28;20199;-78
2023/09/26 04:18:06;;;;;;;15.70;10.10;;;;;;;9.54;100.00;98696.50;5074562;28;20206;-78
2023/09/26 04:20:36;;;;;;;14.90;10.03;;;;;;;9.57;100.00;98696.31;5074056;28;20227;-78
2023/09/26 04:23:02;;;;;;;14.20;10.03;;;;;;;9.58;100.00;98692.75;5073984;28;20261;-78
2023/09/26 04:25:29;;;;;;;14.43;9.97;;;;;;;9.58;100.00;98684.81;5074157;28;20213;-78
2023/09/26 04:27:56;;;;;;;16.57;10.90;;;;;;;9.61;100.00;98690.78;5076003;28;20207;-78
2023/09/26 04:30:23;;;;;;;18.20;11.63;;;;;;;9.63;100.00;98690.69;5076237;28;20211;-78
2023/09/26 04:32:49;;;;;;;18.73;10.93;;;;;;;9.63;100.00;98678.38;5076327;28;20579;-78
2023/09/26 04:35:18;;;;;;;16.73;10.83;;;;;;;9.64;100.00;98679.19;5074993;28;20570;-78
2023/09/26 04:37:44;;;;;;;17.20;11.27;;;;;;;9.62;100.00;98681.09;5075368;28;20210;-78
2023/09/26 04:40:11;;;;;;;15.43;10.90;;;;;;;9.62;100.00;98681.09;5074721;28;20238;-78
2023/09/26 04:42:41;;;;;;;17.77;11.23;;;;;;;9.59;100.00;98679.47;5074516;28;20230;-78
2023/09/26 04:45:09;;;;;;;14.80;10.47;;;;;;;9.58;100.00;98682.19;5074976;28;20211;-78
2023/09/26 04:47:36;;;;;;;15.97;10.60;;;;;;;9.59;100.00;98676.84;5074514;28;20633;-78
2023/09/26 04:50:03;;;;;;;15.50;10.40;;;;;;;9.59;100.00;98678.59;5074085;28;20210;-78
2023/09/26 04:52:31;;;;;;;18.20;10.67;;;;;;;9.57;100.00;98675.22;5074073;28;20229;-79
2023/09/26 04:54:57;;;;;;;15.57;10.47;;;;;;;9.57;100.00;98675.22;5074162;28;20214;-78
2023/09/26 04:57:24;;;;;;;15.67;10.13;;;;;;;9.53;100.00;98678.94;5074041;28;20211;-78
2023/09/26 04:59:50;;;;;;;11.50;9.47;;;;;;;9.49;100.00;98682.72;5073545;28;20446;-78
2023/09/26 05:02:17;;;;;;;14.37;9.30;;;;;;;9.41;100.00;98679.63;5072913;28;20227;-78
2023/09/26 05:04:45;;;;;;;14.63;9.80;;;;;;;9.42;100.00;98676.09;5073698;28;20215;-78
2023/09/26 05:07:12;;;;;;;12.00;8.67;;;;;;;9.44;100.00;98676.84;5072884;28;20203;-78
2023/09/26 05:09:40;;;;;;;12.33;9.37;;;;;;;9.48;100.00;98683.66;5073255;28;20207;-78
2023/09/26 05:12:06;;;;;;;13.50;9.27;;;;;;;9.54;100.00;98676.22;5072364;28;20245;-78
2023/09/26 05:14:33;;;;;;;17.17;9.53;;;;;;;9.51;100.00;98676.41;5072676;28;20203;-78
2023/09/26 05:16:59;;;;;;;13.20;9.17;;;;;;;9.55;100.00;98685.03;5073141;28;20214;-78
2023/09/26 05:19:26;;;;;;;13.40;9.17;;;;;;;9.57;100.00;98681.34;5072472;28;20243;-78
2023/09/26 05:21:52;;;;;;;12.53;9.13;;;;;;;9.54;100.00;98686.78;5072816;28;20231;-78
2023/09/26 05:24:22;;;;;;;13.27;9.27;;;;;;;9.53;100.00;98686.88;5073179;28;20219;-78
2023/09/26 05:26:50;;;;;;;11.27;8.77;;;;;;;9.49;100.00;98690.63;5073214;28;20288;-79
2023/09/26 05:29:17;;;;;;;10.77;8.90;;;;;;;9.45;100.00;98697.88;5072888;28;20269;-78
2023/09/26 05:31:43;;;;;;;11.77;8.17;;;;;;;9.46;100.00;98693.44;5072292;28;20246;-79
2023/09/26 05:34:10;;;;;;;12.53;8.33;;;;;;;9.46;100.00;98701.34;5073075;28;20214;-78
2023/09/26 05:36:36;;;;;;;13.53;9.20;;;;;;;9.47;100.00;98695.13;5073451;28;20208;-79
2023/09/26 05:39:03;;;;;;;14.30;9.10;;;;;;;9.53;100.00;98702.69;5072918;28;20211;-78
2023/09/26 05:41:29;;;;;;;11.70;8.30;;;;;;;9.59;100.00;98699.72;5072944;28;20224;-78
2023/09/26 05:43:57;;;;;;;11.90;8.73;;;;;;;9.65;100.00;98704.66;5073712;28;20212;-79
2023/09/26 05:46:24;;;;;;;11.83;8.70;;;;;;;9.74;100.00;98698.88;5073367;28;20645;-79
2023/09/26 05:48:51;;;;;;;12.57;8.57;;;;;;;9.76;100.00;98696.97;5074103;28;20211;-79
2023/09/26 05:51:17;;;;;;;12.20;8.70;;;;;;;9.79;100.00;98699.47;5073218;28;20252;-79
2023/09/26 05:53:44;;;;;;;11.93;8.20;;;;;;;9.83;100.00;98699.19;5074949;28;20215;-79
2023/09/26 05:56:10;;;;;;;10.87;8.53;;;;;;;9.87;100.00;98689.31;5074454;28;20214;-79
2023/09/26 05:58:37;;;;;;;10.77;8.10;;;;;;;9.90;100.00;98694.44;5073550;28;20229;-79
2023/09/26 06:01:08;;;;;;;9.70;8.03;;;;;;;9.96;100.00;98699.31;5071888;28;20709;-77
2023/09/26 06:03:35;;;;;;;10.33;8.27;;;;;;;10.00;100.00;98690.28;5073559;28;20259;-77
2023/09/26 06:06:03;;;;;;;11.30;7.67;;;;;;;10.07;100.00;98696.94;5072898;28;20211;-77
2023/09/26 06:08:29;;;;;;;13.50;8.77;;;;;;;10.16;100.00;98696.44;5073297;28;20269;-79
2023/09/26 06:10:56;;;;;;;11.27;8.47;;;;;;;10.23;100.00;98693.34;5072940;28;20227;-78
2023/09/26 06:13:22;;;;;;;12.40;8.40;;;;;;;10.30;100.00;98692.03;5073544;28;20211;-79
2023/09/26 06:15:49;;;;;;;10.83;8.07;;;;;;;10.34;100.00;98684.78;5073104;28;20215;-78
2023/09/26 06:18:17;;;;;;;12.57;8.50;;;;;;;10.41;100.00;98694.03;5072857;28;20585;-76
2023/09/26 06:20:44;;;;;;;11.53;8.40;;;;;;;10.49;100.00;98699.72;5072344;28;20742;-78
2023/09/26 06:23:11;;;;;;;10.00;8.03;;;;;;;10.58;100.00;98693.88;5072334;28;20207;-78
2023/09/26 06:25:38;;;;;;;10.17;8.33;;;;;;;10.66;100.00;98702.19;5072670;28;20207;-78
2023/09/26 06:28:05;;;;;;;9.97;7.87;;;;;;;10.70;100.00;98695.78;5072499;28;20207;-78
2023/09/26 06:30:31;;;;;;;11.23;8.43;;;;;;;10.75;100.00;98691.91;5072714;28;20207;-78
2023/09/26 06:32:58;;;;;;;14.10;8.93;;;;;;;10.84;100.00;98703.72;5071325;28;20214;-78
2023/09/26 06:35:26;;;;;;;13.67;9.23;;;;;;;10.90;100.00;98704.16;5078115;28;20226;-79
2023/09/26 06:37:52;;;;;;;11.37;8.50;;;;;;;11.01;100.00;98708.81;5079247;28;20211;-79
2023/09/26 06:40:19;;;;;;;12.03;9.07;;;;;;;11.10;100.00;98709.09;5077032;28;20235;-80
2023/09/26 06:42:46;;;;;;;11.87;8.77;;;;;;;11.13;100.00;98713.34;5074305;28;20231;-79
2023/09/26 06:45:13;;;;;;;12.03;8.83;;;;;;;11.26;100.00;98719.59;5073130;28;20203;-80
2023/09/26 06:47:40;;;;;;;12.23;8.17;;;;;;;11.35;100.00;98714.56;5072919;28;20212;-81
2023/09/26 06:50:10;;;;;;;10.47;8.17;;;;;;;11.42;100.00;98718.50;5073699;28;20204;-81
2023/09/26 06:52:38;;;;;;;10.20;8.30;;;;;;;11.50;100.00;98712.75;5076209;28;20261;-81
2023/09/26 06:55:09;;;;;;;11.23;8.00;;;;;;;11.57;100.00;98714.03;5075562;28;20207;-79
2023/09/26 06:57:36;;;;;;;9.57;7.90;;;;;;;11.69;100.00;98711.47;5074045;28;20214;-81
2023/09/26 07:00:11;;;;;;;11.13;8.00;;;;;;;11.74;100.00;98717.34;5076285;28;20235;-79
2023/09/26 07:02:39;;;;;;;9.30;7.87;;;;;;;11.78;100.00;98713.56;5076699;28;20225;-81
2023/09/26 07:05:06;;;;;;;10.25;9.02;;;;;;;11.95;100.00;98715.09;5075444;28;20493;-79
2023/09/26 07:07:38;;;;;;;10.63;8.27;;;;;;;12.08;100.00;98718.63;5076130;28;20227;-79
2023/09/26 07:10:07;;;;;;;10.10;7.90;;;;;;;12.17;100.00;98715.38;5076032;28;20261;-79
2023/09/26 07:12:37;;;;;;;10.17;7.37;;;;;;;12.25;100.00;98718.38;5076221;28;20722;-79
2023/09/26 07:15:03;;;;;;;8.50;7.60;;;;;;;12.38;100.00;98719.25;5075005;28;20219;-78
2023/09/26 07:17:30;;;;;;;8.43;7.27;;;;;;;12.42;100.00;98716.28;5075528;28;20209;-78
2023/09/26 07:19:57;;;;;;;7.90;7.07;;;;;;;12.53;100.00;98718.22;5075853;28;20243;-78
2023/09/26 07:22:24;;;;;;;9.30;7.83;;;;;;;12.62;100.00;98707.84;5076354;28;20599;-78
2023/09/26 07:24:52;;;;;;;9.03;7.17;;;;;;;12.69;100.00;98718.88;5076699;28;20207;-79
2023/09/26 07:27:19;;;;;;;9.77;8.17;;;;;;;12.76;100.00;98714.84;5076778;28;20218;-79
2023/09/26 07:29:46;;;;;;;9.27;7.57;;;;;;;12.84;100.00;98723.13;5076259;28;20305;-79
2023/09/26 07:32:13;;;;;;;8.83;7.17;;;;;;;12.90;100.00;98714.75;5075937;28;20691;-79
2023/09/26 07:34:41;;;;;;;9.53;7.30;;;;;;;13.00;100.00;98713.16;5077290;28;20233;-79
2023/09/26 07:37:07;;;;;;;8.33;7.17;;;;;;;13.07;100.00;98717.94;5076665;28;20269;-78
2023/09/26 07:39:34;;;;;;;8.57;7.03;;;;;;;13.20;100.00;98717.97;5076378;28;20213;-78
2023/09/26 07:42:02;;;;;;;8.67;6.70;;;;;;;13.25;100.00;98714.00;5076899;28;20229;-78
2023/09/26 07:44:28;;;;;;;8.80;7.30;;;;;;;13.35;100.00;98714.19;5076204;28;20211;-79
2023/09/26 07:46:55;;;;;;;8.90;6.43;;;;;;;13.43;100.00;98722.47;5076601;28;20226;-78
2023/09/26 07:49:21;;;;;;;8.60;7.20;;;;;;;13.58;100.00;98721.38;5077073;28;20216;-78
2023/09/26 07:51:48;;;;;;;8.00;6.20;;;;;;;13.71;100.00;98727.50;5075395;28;20225;-78
2023/09/26 07:54:15;;;;;;;7.53;6.70;;;;;;;13.86;100.00;98718.41;5075604;28;20428;-78
2023/09/26 07:56:41;;;;;;;8.10;6.73;;;;;;;13.99;100.00;98721.88;5075522;28;20217;-77
2023/09/26 07:59:09;;;;;;;8.67;6.63;;;;;;;14.14;100.00;98720.75;5075569;28;20216;-78
2023/09/26 08:01:36;;;;;;;6.60;5.93;;;;;;;14.24;100.00;98713.81;5074799;28;20587;-78
2023/09/26 08:04:03;;;;;;;8.17;6.17;;;;;;;14.38;100.00;98717.16;5075188;28;20217;-78
2023/09/26 08:06:29;;;;;;;9.37;6.73;;;;;;;14.41;100.00;98718.69;5074452;28;20209;-78
2023/09/26 08:08:57;;;;;;;8.20;6.83;;;;;;;14.52;100.00;98716.09;5075973;28;20661;-79
2023/09/26 08:11:27;;;;;;;8.50;6.20;;;;;;;14.68;100.00;98721.94;5074983;28;20261;-78
2023/09/26 08:13:54;;;;;;;7.73;6.50;;;;;;;14.76;100.00;98722.19;5075075;28;20213;-78
2023/09/26 08:16:23;;;;;;;7.77;6.67;;;;;;;14.82;100.00;98711.94;5076317;28;20203;-79
2023/09/26 08:18:50;;;;;;;6.60;5.87;;;;;;;14.99;100.00;98710.63;5075462;28;20301;-78
2023/09/26 08:21:17;;;;;;;7.97;5.77;;;;;;;15.09;100.00;98711.63;5075122;28;20245;-79
2023/09/26 08:23:44;;;;;;;6.70;5.53;;;;;;;15.18;100.00;98716.22;5076174;28;20581;-79
2023/09/26 08:26:11;;;;;;;6.87;6.07;;;;;;;15.27;100.00;98716.34;5076093;28;20211;-79
2023/09/26 08:28:38;;;;;;;6.37;5.73;;;;;;;15.36;100.00;98714.78;5075481;28;20225;-78
2023/09/26 08:31:07;;;;;;;6.60;5.70;;;;;;;15.47;100.00;98714.78;5074257;28;20230;-78
2023/09/26 08:33:35;;;;;;;8.17;6.27;;;;;;;15.60;100.00;98707.50;5074481;28;20214;-78
2023/09/26 08:36:02;;;;;;;5.90;5.30;;;;;;;15.69;100.00;98701.44;5074518;28;20248;-78
2023/09/26 08:38:28;;;;;;;7.27;5.33;;;;;;;15.85;100.00;98701.88;5074247;28;20264;-78
2023/09/26 08:40:58;;;;;;;6.57;5.30;;;;;;;16.02;100.00;98701.38;5075565;28;20235;-78
2023/09/26 08:43:27;;;;;;;6.70;5.70;;;;;;;16.19;100.00;98697.19;5079206;28;20207;-78
2023/09/26 08:45:54;;;;;;;6.73;5.87;;;;;;;16.27;100.00;98689.38;5078695;28;20683;-78
2023/09/26 08:48:21;;;;;;;7.97;6.03;;;;;;;16.55;100.00;98691.47;5080274;28;20223;-78
2023/09/26 08:50:49;;;;;;;7.07;5.40;;;;;;;16.54;100.00;98684.44;5075711;28;20314;-78
2023/09/26 08:53:16;;;;;;;6.63;5.07;;;;;;;16.52;100.00;98681.03;5076479;28;20212;-80
2023/09/26 08:55:45;;;;;;;6.20;5.00;;;;;;;16.63;100.00;98686.31;5073503;28;20222;-77
2023/09/26 08:58:15;;;;;;;5.77;5.13;;;;;;;16.79;100.00;98676.03;5074302;28;20306;-80
2023/09/26 09:00:42;;;;;;;6.03;4.50;;;;;;;16.88;100.00;98683.25;5074108;28;20237;-78
2023/09/26 09:03:09;;;;;;;7.43;5.20;;;;;;;17.00;100.00;98687.53;5073723;28;20214;-79
2023/09/26 09:05:35;;;;;;;7.27;5.17;;;;;;;17.10;100.00;98691.13;5074552;28;20207;-78
2023/09/26 09:08:04;;;;;;;5.10;4.60;;;;;;;17.28;99.84;98684.16;5074206;28;20215;-79
2023/09/26 09:10:30;;;;;;;6.63;5.50;;;;;;;17.29;95.11;98664.47;5074000;28;20211;-78
2023/09/26 09:13:03;;;;;;;5.40;4.50;;;;;;;17.32;95.06;98669.53;5071475;28;20909;-78
2023/09/26 09:15:30;;;;;;;5.23;4.73;;;;;;;17.36;95.35;98670.97;5073031;28;20238;-77
2023/09/26 09:17:58;;;;;;;5.93;5.27;;;;;;;17.48;95.01;98675.28;5074041;28;20310;-77
2023/09/26 09:20:30;;;;;;;5.93;5.33;;;;;;;17.66;94.37;98662.94;5073373;28;20242;-79
2023/09/26 09:23:01;;;;;;;6.00;5.40;;;;;;;17.77;93.87;98667.31;5074095;28;20219;-79
2023/09/26 09:25:32;;;;;;;6.50;5.50;;;;;;;17.91;93.04;98667.78;5074416;28;20265;-79
2023/09/26 09:28:00;;;;;;;6.53;5.83;;;;;;;17.98;91.92;98647.50;5064172;28;20239;-77
2023/09/26 09:30:28;;;;;;;6.60;5.57;;;;;;;18.05;93.70;98659.34;5052948;28;20330;-76
2023/09/26 09:32:55;;;;;;;6.30;5.70;;;;;;;18.08;92.44;98652.84;5052847;28;20226;-78
2023/09/26 09:35:21;;;;;;;8.17;5.70;;;;;;;18.11;91.56;98658.78;5052802;28;20227;-78
2023/09/26 09:37:50;;;;;;;6.67;5.97;;;;;;;18.05;91.09;98653.97;5053335;28;20673;-79
2023/09/26 09:40:17;;;;;;;8.87;6.17;;;;;;;18.17;92.16;98652.88;5052883;28;20208;-79
2023/09/26 09:42:45;;;;;;;6.63;5.77;;;;;;;18.34;89.91;98651.38;5052379;28;20724;-79
2023/09/26 09:45:11;;;;;;;7.50;6.70;;;;;;;18.52;86.68;98639.78;5053179;28;20212;-79
2023/09/26 09:47:42;;;;;;;6.80;6.03;;;;;;;18.61;87.11;98641.63;5053111;28;20215;-80
2023/09/26 09:50:09;;;;;;;6.93;6.03;;;;;;;18.62;86.01;98647.81;5054304;28;20673;-80
2023/09/26 09:52:39;;;;;;;8.50;6.57;;;;;;;18.62;85.72;98643.31;5053772;28;20232;-79
2023/09/26 09:55:09;;;;;;;6.50;5.77;;;;;;;18.61;85.00;98630.91;5053617;28;20219;-79
2023/09/26 09:57:41;;;;;;;7.57;6.10;;;;;;;18.64;84.34;98627.94;5053943;28;20204;-80
2023/09/26 10:00:10;;;;;;;6.60;5.90;;;;;;;18.71;84.47;98636.25;5054021;28;20209;-79
2023/09/26 10:02:37;;;;;;;6.50;5.83;;;;;;;18.83;83.40;98630.56;5052326;28;20232;-78
2023/09/26 10:05:07;;;;;;;6.10;5.43;;;;;;;18.77;83.39;98624.94;5052847;28;20208;-79
2023/09/26 10:07:36;;;;;;;8.00;6.00;;;;;;;18.74;82.04;98620.72;5052721;28;20589;-78
2023/09/26 10:10:03;;;;;;;6.50;5.80;;;;;;;18.95;82.06;98612.50;5053307;28;20208;-80
2023/09/26 10:12:30;;;;;;;6.63;5.97;;;;;;;19.04;83.70;98625.00;5052687;28;20221;-78
2023/09/26 10:14:57;;;;;;;6.27;5.53;;;;;;;19.19;83.46;98626.22;5053147;28;20208;-81
2023/09/26 10:17:25;;;;;;;8.40;6.27;;;;;;;19.31;80.90;98604.44;5053345;28;20624;-78
2023/09/26 10:19:51;;;;;;;6.40;5.30;;;;;;;19.28;80.96;98611.94;5052322;28;20204;-78
2023/09/26 10:22:19;;;;;;;6.10;5.37;;;;;;;19.28;81.36;98611.94;5052205;28;20244;-78
2023/09/26 10:24:46;;;;;;;5.60;5.10;;;;;;;19.37;82.18;98616.41;5052544;28;20236;-78
2023/09/26 10:27:13;;;;;;;6.57;5.27;;;;;;;19.45;81.58;98608.47;5052809;28;20216;-78
2023/09/26 10:29:39;;;;;;;5.30;4.80;;;;;;;19.44;80.16;98599.56;5052764;28;20208;-79
2023/09/26 10:32:08;;;;;;;5.40;4.80;;;;;;;19.52;79.79;98602.34;5052927;28;20220;-78
2023/09/26 10:34:37;;;;;;;5.20;4.70;;;;;;;19.71;79.41;98607.63;5056552;28;20212;-79
2023/09/26 10:37:07;;;;;;;5.93;4.20;;;;;;;19.79;78.88;98594.28;5057070;28;20219;-79
2023/09/26 10:39:35;;;;;;;6.27;4.40;;;;;;;19.88;77.38;98590.66;5056575;28;20426;-78
2023/09/26 10:42:09;;;;;;;4.73;4.27;;;;;;;20.02;78.47;98598.19;5055005;28;20228;-78
2023/09/26 10:44:36;;;;;;;5.63;4.30;;;;;;;20.04;76.63;98588.16;5056377;28;20216;-78
2023/09/26 10:47:04;;;;;;;5.43;4.60;;;;;;;20.12;74.80;98569.47;5059884;28;20211;-78
2023/09/26 10:49:31;;;;;;;4.07;3.70;;;;;;;20.19;75.83;98578.56;5059818;28;20207;-78
2023/09/26 10:52:03;;;;;;;5.27;4.53;;;;;;;20.33;73.98;98571.81;5058595;28;20315;-78
2023/09/26 10:54:32;;;;;;;5.93;5.30;;;;;;;20.47;73.67;98568.59;5057435;28;20208;-78
2023/09/26 10:57:00;;;;;;;4.87;4.47;;;;;;;20.49;73.12;98556.66;5057164;28;20223;-78
2023/09/26 10:59:28;;;;;;;4.70;4.20;;;;;;;20.46;72.34;98557.00;5057303;28;20208;-78
2023/09/26 11:01:56;;;;;;;4.30;3.90;;;;;;;20.37;72.24;98557.91;5057048;28;20235;-80
2023/09/26 11:04:24;;;;;;;4.77;4.00;;;;;;;20.46;70.07;98543.56;5057096;28;20212;-82
2023/09/26 11:06:51;;;;;;;5.20;4.10;;;;;;;20.58;70.18;98552.19;5055144;28;20582;-77
2023/09/26 11:09:19;;;;;;;4.30;3.90;;;;;;;20.67;69.45;98544.03;5055255;28;20212;-78
2023/09/26 11:11:45;;;;;;;4.83;4.30;;;;;;;20.65;69.02;98543.34;5053538;28;20227;-78
2023/09/26 11:14:12;;;;;;;4.33;3.53;;;;;;;20.69;70.94;98552.78;5060710;28;20207;-79
2023/09/26 11:16:41;;;;;;;4.47;3.80;;;;;;;20.80;70.76;98555.16;5055408;28;20234;-79
2023/09/26 11:19:09;;;;;;;3.90;3.60;;;;;;;20.84;69.30;98545.81;5054370;28;20208;-78
2023/09/26 11:21:36;;;;;;;3.42;3.13;;;;;;;20.92;69.25;98545.03;5054537;28;20452;-78
2023/09/26 11:26:58;;;;;;;2.77;2.50;;;;;;;21.12;67.41;98536.56;5110452;27;20547;-77